Time;durP1;ratioP1;P1;durP2;ratioP2;P2;SDS_P1;SDS_P2;PMS_P1;PMS_P2;Temp;Humidity;BMP_temperature;BMP_pressure;BME280_temperature;BME280_humidity;BME280_pressure;Samples;Min_cycle;Max_cycle;Signal;HPM_P1;HPM_P2
2023/03/01 00:01:57;;;;;;;;;;;0.00;99.90;;;;;;5089576;28;19947;-44
2023/03/01 00:04:24;;;;;;;;;;;-0.10;99.90;;;;;;5090108;28;20017;-44
2023/03/01 00:06:52;;;;;;;;;;;-0.10;99.90;;;;;;5089265;28;19977;-48
2023/03/01 00:09:19;;;;;;;;;;;-0.20;99.90;;;;;;5073090;28;19990;-43
2023/03/01 00:11:45;;;;;;;;;;;-0.20;99.90;;;;;;5092094;28;20033;-42
2023/03/01 00:14:12;;;;;;;;;;;-0.20;99.90;;;;;;5089057;28;19928;-44
2023/03/01 00:16:39;;;;;;;;;;;-0.20;99.90;;;;;;5072996;28;20015;-43
2023/03/01 00:19:06;;;;;;;;;;;-0.20;99.90;;;;;;5091399;28;19948;-46
2023/03/01 00:21:33;;;;;;;;;;;-0.20;99.90;;;;;;5088289;28;20040;-44
2023/03/01 00:24:01;;;;;;;;;;;-0.30;99.90;;;;;;5090998;28;19980;-44
2023/03/01 00:26:28;;;;;;;;;;;-0.30;99.90;;;;;;5090451;28;19994;-44
2023/03/01 00:28:55;;;;;;;;;;;-0.40;99.90;;;;;;5090693;28;20075;-44
2023/03/01 00:31:22;;;;;;;;;;;-0.40;99.90;;;;;;5072739;28;19963;-44
2023/03/01 00:33:49;;;;;;;;;;;-0.40;99.90;;;;;;5090090;28;19934;-44
2023/03/01 00:36:16;;;;;;;;;;;-0.50;99.90;;;;;;5089583;28;19965;-41
2023/03/01 00:38:43;;;;;;;;;;;-0.50;99.90;;;;;;5091857;28;19985;-47
2023/03/01 00:41:11;;;;;;;;;;;-0.50;99.90;;;;;;5072601;28;20029;-44
2023/03/01 00:43:38;;;;;;;;;;;-0.60;99.90;;;;;;5072716;28;19940;-44
2023/03/01 00:46:05;;;;;;;;;;;-0.60;99.90;;;;;;5073226;28;20043;-44
2023/03/01 00:48:32;;;;;;;;;;;-0.60;99.90;;;;;;5090740;28;19938;-42
2023/03/01 00:51:04;;;;;;;;;;;-0.60;99.90;;;;;;5072844;28;19971;-41
2023/03/01 00:53:31;;;;;;;;;;;-0.60;99.90;;;;;;5072466;28;19984;-43
2023/03/01 00:55:58;;;;;;;;;;;-0.60;99.90;;;;;;5071517;28;20428;-42
2023/03/01 00:58:26;;;;;;;;;;;-0.70;99.90;;;;;;5072990;28;20427;-41
2023/03/01 01:00:53;;;;;;;;;;;-0.50;99.90;;;;;;5071320;28;19989;-42
2023/03/01 01:03:19;;;;;;;;;;;-0.70;99.90;;;;;;5087626;28;19924;-43
2023/03/01 01:05:46;;;;;;;;;;;-0.70;99.90;;;;;;5089620;28;19939;-42
2023/03/01 01:08:13;;;;;;;;;;;-0.70;99.90;;;;;;5089189;28;19991;-41
2023/03/01 01:10:39;;;;;;;;;;;-0.70;99.90;;;;;;5072708;28;20030;-42
2023/03/01 01:13:06;;;;;;;;;;;-0.70;99.90;;;;;;5072389;28;19943;-44
2023/03/01 01:15:35;;;;;;;;;;;-0.70;99.90;;;;;;5089276;28;20034;-42
2023/03/01 01:18:01;;;;;;;;;;;-0.70;99.90;;;;;;5070343;28;19961;-46
2023/03/01 01:20:28;;;;;;;;;;;-0.70;99.90;;;;;;5090635;28;20386;-44
2023/03/01 01:22:55;;;;;;;;;;;-0.60;99.90;;;;;;5073000;28;19951;-41
2023/03/01 01:25:24;;;;;;;;;;;-0.60;99.90;;;;;;5072946;28;20466;-43
2023/03/01 01:27:51;;;;;;;;;;;-0.60;99.90;;;;;;5090189;28;19940;-44
2023/03/01 01:30:18;;;;;;;;;;;-0.60;99.90;;;;;;5073611;28;20034;-43
2023/03/01 01:32:46;;;;;;;;;;;-0.60;99.90;;;;;;5090126;28;20372;-43
2023/03/01 01:35:12;;;;;;;;;;;-0.60;99.90;;;;;;5074458;28;19982;-40
2023/03/01 01:37:39;;;;;;;;;;;-0.70;99.90;;;;;;5095333;28;19962;-42
2023/03/01 01:40:06;;;;;;;;;;;-0.70;99.90;;;;;;5075125;28;20026;-46
2023/03/01 01:42:32;;;;;;;;;;;-0.70;99.90;;;;;;5075208;28;19986;-45
2023/03/01 01:45:18;;;;;;;;;;;-0.70;99.90;;;;;;5094505;28;19981;-45
2023/03/01 01:47:48;;;;;;;;;;;-0.70;99.90;;;;;;5094673;28;20039;-44
2023/03/01 01:50:15;;;;;;;;;;;-0.70;99.90;;;;;;5077486;28;19954;-44
2023/03/01 01:52:42;;;;;;;;;;;-0.70;99.90;;;;;;5075643;28;19971;-41
2023/03/01 01:55:09;;;;;;;;;;;-0.80;99.90;;;;;;5094238;28;20383;-43
2023/03/01 01:57:36;;;;;;;;;;;-0.80;99.90;;;;;;5076306;28;19994;-44
2023/03/01 02:00:04;;;;;;;;;;;-0.80;99.90;;;;;;5075572;28;20027;-43
2023/03/01 02:02:31;;;;;;;;;;;-0.90;99.90;;;;;;5093301;28;19968;-41
2023/03/01 02:05:03;;;;;;;;;;;-0.90;99.90;;;;;;5076947;28;19988;-44
2023/03/01 02:07:30;;;;;;;;;;;-1.00;99.90;;;;;;5093903;28;19962;-46
2023/03/01 02:09:56;;;;;;;;;;;-1.00;99.90;;;;;;5092973;28;19989;-43
2023/03/01 02:12:24;;;;;;;;;;;-1.00;99.90;;;;;;5076131;28;19937;-46
2023/03/01 02:14:50;;;;;;;;;;;-1.00;99.90;;;;;;5093151;28;20411;-45
2023/03/01 02:17:17;;;;;;;;;;;-1.00;99.90;;;;;;5088356;28;20415;-42
2023/03/01 02:19:47;;;;;;;;;;;-1.10;99.90;;;;;;5092050;28;19960;-41
2023/03/01 02:22:16;;;;;;;;;;;-1.10;99.90;;;;;;5093736;28;19985;-45
2023/03/01 02:24:46;;;;;;;;;;;-1.10;99.90;;;;;;5075837;28;19983;-41
2023/03/01 02:27:14;;;;;;;;;;;-1.10;99.90;;;;;;5101044;28;20000;-40
2023/03/01 02:29:43;;;;;;;;;;;-1.10;99.90;;;;;;5074347;28;19981;-42
2023/03/01 02:32:10;;;;;;;;;;;-1.10;99.90;;;;;;5074733;28;19951;-46
2023/03/01 02:34:37;;;;;;;;;;;-1.10;99.90;;;;;;5092701;28;20057;-45
2023/03/01 02:37:04;;;;;;;;;;;-1.20;99.90;;;;;;5091442;28;19960;-45
2023/03/01 02:39:32;;;;;;;;;;;-1.20;99.90;;;;;;5074382;28;19950;-43
2023/03/01 02:42:00;;;;;;;;;;;-1.20;99.90;;;;;;5073788;28;19988;-42
2023/03/01 02:44:26;;;;;;;;;;;-1.20;99.90;;;;;;5094518;28;19944;-46
2023/03/01 02:46:55;;;;;;;;;;;-1.20;99.90;;;;;;5092350;28;19992;-41
2023/03/01 02:49:23;;;;;;;;;;;-1.30;99.90;;;;;;5092246;28;20331;-44
2023/03/01 02:51:53;;;;;;;;;;;-1.30;99.90;;;;;;5075247;28;20385;-43
2023/03/01 02:54:22;;;;;;;;;;;-1.30;99.90;;;;;;5092921;28;20031;-42
2023/03/01 02:56:49;;;;;;;;;;;-1.30;99.90;;;;;;5074128;28;19993;-43
2023/03/01 02:59:16;;;;;;;;;;;-1.30;99.90;;;;;;5092261;28;19943;-44
2023/03/01 03:01:42;;;;;;;;;;;-1.30;99.90;;;;;;5093030;28;19981;-44
2023/03/01 03:04:11;;;;;;;;;;;-1.30;99.90;;;;;;5092287;28;19938;-43
2023/03/01 03:06:37;;;;;;;;;;;-1.40;99.90;;;;;;5092911;28;19945;-42
2023/03/01 03:09:04;;;;;;;;;;;-1.50;99.90;;;;;;5075291;28;20370;-41
2023/03/01 03:11:32;;;;;;;;;;;-1.60;99.90;;;;;;5074731;28;19977;-45
2023/03/01 03:13:58;;;;;;;;;;;-1.60;99.90;;;;;;5092933;28;19946;-45
2023/03/01 03:16:25;;;;;;;;;;;-1.70;99.90;;;;;;5074788;28;19937;-43
2023/03/01 03:18:52;;;;;;;;;;;-1.80;99.90;;;;;;5092248;28;19951;-42
2023/03/01 03:21:20;;;;;;;;;;;-1.80;99.90;;;;;;5090333;28;20011;-43
2023/03/01 03:23:46;;;;;;;;;;;-1.80;99.90;;;;;;5075667;28;19951;-45
2023/03/01 03:26:14;;;;;;;;;;;-1.80;99.90;;;;;;5092474;28;19984;-44
2023/03/01 03:28:41;;;;;;;;;;;-1.90;99.90;;;;;;5094937;28;19979;-43
2023/03/01 03:31:08;;;;;;;;;;;-1.90;99.90;;;;;;5105373;28;19937;-41
2023/03/01 03:33:34;;;;;;;;;;;-2.00;99.90;;;;;;5058744;28;20368;-45
2023/03/01 03:36:01;;;;;;;;;;;-1.90;99.90;;;;;;5074260;28;20019;-45
2023/03/01 03:38:29;;;;;;;;;;;-1.90;99.90;;;;;;5090409;28;20058;-44
2023/03/01 03:41:01;;;;;;;;;;;-1.90;99.90;;;;;;5091926;28;20001;-49
2023/03/01 03:43:27;;;;;;;;;;;-1.80;99.90;;;;;;5092187;28;19946;-42
2023/03/01 03:45:56;;;;;;;;;;;-1.90;99.90;;;;;;5091486;28;20384;-44
2023/03/01 03:48:23;;;;;;;;;;;-1.90;99.90;;;;;;5071926;28;19999;-47
2023/03/01 03:50:50;;;;;;;;;;;-1.90;99.90;;;;;;5075153;28;19941;-43
2023/03/01 03:53:17;;;;;;;;;;;-1.90;99.90;;;;;;5071757;28;19945;-46
2023/03/01 03:55:45;;;;;;;;;;;-1.90;99.90;;;;;;5090756;28;20023;-44
2023/03/01 03:58:11;;;;;;;;;;;-2.00;99.90;;;;;;5070620;28;19956;-42
2023/03/01 04:00:38;;;;;;;;;;;-2.00;99.90;;;;;;5092240;28;19993;-41
2023/03/01 04:03:05;;;;;;;;;;;-2.00;99.90;;;;;;5073873;28;20033;-42
2023/03/01 04:05:31;;;;;;;;;;;-2.00;99.90;;;;;;5090875;28;20042;-43
2023/03/01 04:08:06;;;;;;;;;;;-2.00;99.90;;;;;;5070976;28;20030;-43
2023/03/01 04:10:34;;;;;;;;;;;-2.00;99.90;;;;;;5091413;28;20055;-45
2023/03/01 04:13:02;;;;;;;;;;;-1.90;99.90;;;;;;5073697;28;20038;-41
2023/03/01 04:15:29;;;;;;;;;;;-2.00;99.90;;;;;;5091157;28;19977;-44
2023/03/01 04:17:55;;;;;;;;;;;-2.00;99.90;;;;;;5073538;28;20035;-45
2023/03/01 04:20:24;;;;;;;;;;;-2.00;99.90;;;;;;5072470;28;20034;-45
2023/03/01 04:22:51;;;;;;;;;;;-2.00;99.90;;;;;;5073111;28;19947;-43
2023/03/01 04:25:18;;;;;;;;;;;-2.00;99.90;;;;;;5090650;28;20020;-47
2023/03/01 04:27:44;;;;;;;;;;;-2.00;99.90;;;;;;5074498;28;19938;-42
2023/03/01 04:30:13;;;;;;;;;;;-2.00;99.90;;;;;;5071790;28;19989;-43
2023/03/01 04:32:39;;;;;;;;;;;-2.10;99.90;;;;;;5073196;28;20352;-46
2023/03/01 04:35:06;;;;;;;;;;;-2.10;99.90;;;;;;5091593;28;19987;-43
2023/03/01 04:37:33;;;;;;;;;;;-2.10;99.90;;;;;;5091545;28;20424;-44
2023/03/01 04:39:59;;;;;;;;;;;-2.10;99.90;;;;;;5069555;28;20638;-43
2023/03/01 04:42:26;;;;;;;;;;;-2.10;99.90;;;;;;5087762;28;19988;-47
2023/03/01 04:44:53;;;;;;;;;;;-2.20;99.90;;;;;;5072352;28;20383;-41
2023/03/01 04:47:21;;;;;;;;;;;-2.20;99.90;;;;;;5086097;28;20014;-45
2023/03/01 04:49:47;;;;;;;;;;;-2.20;99.90;;;;;;5086740;28;19987;-48
2023/03/01 04:52:14;;;;;;;;;;;-2.20;99.90;;;;;;5086821;28;20021;-46
2023/03/01 04:54:41;;;;;;;;;;;-2.20;99.90;;;;;;5089523;28;21291;-46
2023/03/01 04:57:07;;;;;;;;;;;-2.30;99.90;;;;;;5090102;28;20110;-41
2023/03/01 04:59:35;;;;;;;;;;;-2.30;99.90;;;;;;5091211;28;20050;-44
2023/03/01 05:02:02;;;;;;;;;;;-2.30;99.90;;;;;;5090010;28;19946;-44
2023/03/01 05:04:31;;;;;;;;;;;-2.30;99.90;;;;;;5073297;28;20027;-44
2023/03/01 05:06:58;;;;;;;;;;;-2.30;99.90;;;;;;5068900;28;20417;-40
2023/03/01 05:09:25;;;;;;;;;;;-2.40;99.90;;;;;;5088345;28;20008;-42
2023/03/01 05:11:51;;;;;;;;;;;-2.40;99.90;;;;;;5090679;28;20047;-45
2023/03/01 05:14:18;;;;;;;;;;;-2.40;99.90;;;;;;5092324;28;20032;-47
2023/03/01 05:16:45;;;;;;;;;;;-2.40;99.90;;;;;;5075942;28;19940;-44
2023/03/01 05:19:15;;;;;;;;;;;-2.40;99.90;;;;;;5094354;28;19998;-44
2023/03/01 05:24:23;;;;;;;;;;;-2.40;99.90;;;;;;5093839;28;20399;-44
2023/03/01 05:26:51;;;;;;;;;;;-2.50;99.90;;;;;;5076654;28;19995;-46
2023/03/01 05:29:18;;;;;;;;;;;-2.50;99.90;;;;;;5093459;28;19950;-45
2023/03/01 05:31:45;;;;;;;;;;;-2.50;99.90;;;;;;5091468;28;20013;-44
2023/03/01 05:34:12;;;;;;;;;;;-2.50;99.90;;;;;;5091191;28;20022;-41
2023/03/01 05:36:39;;;;;;;;;;;-2.50;99.90;;;;;;5092752;28;19940;-45
2023/03/01 05:39:07;;;;;;;;;;;-2.50;99.90;;;;;;5074467;28;20056;-45
2023/03/01 05:41:33;;;;;;;;;;;-2.50;99.90;;;;;;5093611;28;20034;-44
2023/03/01 05:44:00;;;;;;;;;;;-2.50;99.90;;;;;;5076339;28;19945;-45
2023/03/01 05:46:27;;;;;;;;;;;-2.60;99.90;;;;;;5094469;28;19948;-46
2023/03/01 05:48:53;;;;;;;;;;;-2.60;99.90;;;;;;5077217;28;20363;-38
2023/03/01 05:51:22;;;;;;;;;;;-2.60;99.90;;;;;;5093368;28;19938;-43
2023/03/01 05:53:48;;;;;;;;;;;-2.60;99.90;;;;;;5076154;28;19951;-45
2023/03/01 05:56:16;;;;;;;;;;;-2.60;99.90;;;;;;5092818;28;19987;-44
2023/03/01 05:58:43;;;;;;;;;;;-2.70;99.90;;;;;;5092906;28;20050;-43
2023/03/01 06:01:11;;;;;;;;;;;-2.60;99.90;;;;;;5094624;28;19966;-47
2023/03/01 06:03:38;;;;;;;;;;;-2.70;99.90;;;;;;5093632;28;19953;-47
2023/03/01 06:06:05;;;;;;;;;;;-2.70;99.90;;;;;;5071873;28;20426;-48
2023/03/01 06:08:32;;;;;;;;;;;-2.70;99.90;;;;;;5094069;28;20352;-48
2023/03/01 06:10:58;;;;;;;;;;;-2.70;99.90;;;;;;5074746;28;19985;-47
2023/03/01 06:13:26;;;;;;;;;;;-2.70;99.90;;;;;;5093052;28;20050;-42
2023/03/01 06:15:53;;;;;;;;;;;-2.70;99.90;;;;;;5073991;28;19988;-43
2023/03/01 06:18:19;;;;;;;;;;;-2.70;99.90;;;;;;5075811;28;20050;-43
2023/03/01 06:20:47;;;;;;;;;;;-2.80;99.90;;;;;;5093320;28;19960;-44
2023/03/01 06:23:13;;;;;;;;;;;-2.70;99.90;;;;;;5091010;28;19986;-43
2023/03/01 06:25:40;;;;;;;;;;;-2.80;99.90;;;;;;5093712;28;19936;-44
2023/03/01 06:28:07;;;;;;;;;;;-2.80;99.90;;;;;;5074880;28;19992;-43
2023/03/01 06:30:35;;;;;;;;;;;-2.80;99.90;;;;;;5092903;28;19995;-42
2023/03/01 06:33:01;;;;;;;;;;;-2.80;99.90;;;;;;5074754;28;20027;-42
2023/03/01 06:35:29;;;;;;;;;;;-2.80;99.90;;;;;;5092009;28;19978;-43
2023/03/01 06:37:56;;;;;;;;;;;-2.90;99.90;;;;;;5075608;28;19940;-44
2023/03/01 06:40:23;;;;;;;;;;;-2.80;99.90;;;;;;5093363;28;19963;-48
2023/03/01 06:42:50;;;;;;;;;;;-2.80;99.90;;;;;;5090946;28;20013;-48
2023/03/01 06:45:17;;;;;;;;;;;-2.80;99.90;;;;;;5073735;28;19974;-40
2023/03/01 06:47:45;;;;;;;;;;;-2.80;99.90;;;;;;5090890;28;20019;-44
2023/03/01 06:50:12;;;;;;;;;;;-2.90;99.90;;;;;;5070603;28;19971;-45
2023/03/01 06:52:38;;;;;;;;;;;-2.80;99.90;;;;;;5082376;28;20366;-44
2023/03/01 06:55:06;;;;;;;;;;;-2.80;99.90;;;;;;5074664;28;20382;-45
2023/03/01 06:57:32;;;;;;;;;;;-2.80;99.90;;;;;;5072232;28;20041;-39
2023/03/01 06:59:59;;;;;;;;;;;-2.80;99.90;;;;;;5069371;28;20051;-45
2023/03/01 07:02:25;;;;;;;;;;;-2.70;99.90;;;;;;5071838;28;19939;-47
2023/03/01 07:04:53;;;;;;;;;;;-2.70;99.90;;;;;;5090923;28;20448;-43
2023/03/01 07:07:20;;;;;;;;;;;-2.70;99.90;;;;;;5091925;28;19948;-42
2023/03/01 07:09:47;;;;;;;;;;;-2.70;99.90;;;;;;5070268;28;19991;-46
2023/03/01 07:12:13;;;;;;;;;;;-2.70;99.90;;;;;;5090563;28;19987;-44
2023/03/01 07:14:40;;;;;;;;;;;-2.70;99.90;;;;;;5092478;28;19986;-41
2023/03/01 07:17:07;;;;;;;;;;;-2.60;99.90;;;;;;5090127;28;19983;-45
2023/03/01 07:19:33;;;;;;;;;;;-2.60;99.90;;;;;;5089818;28;19970;-43
2023/03/01 07:22:04;;;;;;;;;;;-2.50;99.90;;;;;;5090907;28;19931;-46
2023/03/01 07:24:30;;;;;;;;;;;-2.50;99.90;;;;;;5073729;28;19946;-44
2023/03/01 07:26:57;;;;;;;;;;;-2.50;99.90;;;;;;5074286;28;19995;-41
2023/03/01 07:29:23;;;;;;;;;;;-2.40;99.90;;;;;;5091783;28;20392;-46
2023/03/01 07:31:50;;;;;;;;;;;-2.40;99.90;;;;;;5082369;28;20035;-47
2023/03/01 07:34:17;;;;;;;;;;;-2.30;99.90;;;;;;5091219;28;20166;-43
2023/03/01 07:36:45;;;;;;;;;;;-2.30;99.90;;;;;;5073256;28;20085;-44
2023/03/01 07:39:13;;;;;;;;;;;-2.30;99.90;;;;;;5069006;28;19954;-42
2023/03/01 07:41:39;;;;;;;;;;;-2.10;99.90;;;;;;5087349;28;19978;-46
2023/03/01 07:44:06;;;;;;;;;;;-2.10;99.90;;;;;;5090278;28;19938;-43
2023/03/01 07:46:33;;;;;;;;;;;-2.00;99.90;;;;;;5090414;28;19939;-48
2023/03/01 07:49:00;;;;;;;;;;;-1.90;99.90;;;;;;5091012;28;20281;-46
2023/03/01 07:51:27;;;;;;;;;;;-1.90;99.90;;;;;;5071134;28;19982;-46
2023/03/01 07:53:53;;;;;;;;;;;-1.70;99.90;;;;;;5072680;28;19990;-46
2023/03/01 07:56:21;;;;;;;;;;;-1.60;99.90;;;;;;5072363;28;20043;-43
2023/03/01 07:58:48;;;;;;;;;;;-1.50;99.90;;;;;;5090550;28;19999;-44
2023/03/01 08:01:15;;;;;;;;;;;-1.40;99.90;;;;;;5071482;28;19946;-43
2023/03/01 08:03:43;;;;;;;;;;;-1.20;99.90;;;;;;5089180;28;20363;-46
2023/03/01 08:06:10;;;;;;;;;;;-1.10;99.90;;;;;;5069646;28;19940;-46
2023/03/01 08:08:36;;;;;;;;;;;-0.90;99.90;;;;;;5071176;28;19987;-49
2023/03/01 08:11:04;;;;;;;;;;;-0.70;99.90;;;;;;5089941;28;20387;-41
2023/03/01 08:13:32;;;;;;;;;;;-0.50;99.90;;;;;;5063843;28;19947;-46
2023/03/01 08:16:01;;;;;;;;;;;-0.40;99.90;;;;;;5083316;28;20061;-46
2023/03/01 08:18:28;;;;;;;;;;;-0.30;99.90;;;;;;5051269;28;20310;-40
2023/03/01 08:20:55;;;;;;;;;;;-0.10;99.90;;;;;;5085691;28;20018;-43
2023/03/01 08:23:21;;;;;;;;;;;0.10;99.90;;;;;;5089307;28;19935;-41
2023/03/01 08:25:48;;;;;;;;;;;0.20;99.90;;;;;;5084518;28;20373;-42
2023/03/01 08:28:15;;;;;;;;;;;0.30;99.90;;;;;;5079391;28;19985;-49
2023/03/01 08:30:43;;;;;;;;;;;0.60;99.90;;;;;;5072069;28;19942;-46
2023/03/01 08:33:09;;;;;;;;;;;0.60;99.90;;;;;;5087885;28;19988;-44
2023/03/01 08:35:36;;;;;;;;;;;0.70;99.90;;;;;;5071273;28;20010;-45
2023/03/01 08:38:02;;;;;;;;;;;0.90;99.90;;;;;;5088725;28;20399;-50
2023/03/01 08:40:29;;;;;;;;;;;1.00;99.90;;;;;;5088760;28;20387;-50
2023/03/01 08:42:56;;;;;;;;;;;1.10;99.90;;;;;;5070447;28;20073;-46
2023/03/01 08:45:22;;;;;;;;;;;1.30;99.90;;;;;;5070733;28;20039;-46
2023/03/01 08:47:54;;;;;;;;;;;1.40;99.90;;;;;;5072135;28;20031;-43
2023/03/01 08:50:20;;;;;;;;;;;1.50;99.90;;;;;;5071296;28;19935;-43
2023/03/01 08:52:47;;;;;;;;;;;1.70;99.90;;;;;;5089040;28;20023;-46
2023/03/01 08:55:16;;;;;;;;;;;1.90;99.90;;;;;;5089327;28;20030;-47
2023/03/01 08:57:42;;;;;;;;;;;2.00;99.90;;;;;;5071204;28;19994;-46
2023/03/01 09:00:11;;;;;;;;;;;2.20;99.90;;;;;;5088832;28;20412;-40
2023/03/01 09:02:38;;;;;;;;;;;2.30;99.90;;;;;;5072379;28;20415;-48
2023/03/01 09:05:06;;;;;;;;;;;2.40;99.90;;;;;;5087566;28;19937;-49
2023/03/01 09:07:33;;;;;;;;;;;2.50;99.90;;;;;;5068745;28;20544;-45
2023/03/01 09:10:00;;;;;;;;;;;2.70;99.90;;;;;;5070344;28;19938;-48
2023/03/01 09:12:27;;;;;;;;;;;2.70;99.90;;;;;;5091176;28;20028;-49
2023/03/01 09:14:53;;;;;;;;;;;2.90;99.90;;;;;;5087659;28;19987;-51
2023/03/01 09:17:21;;;;;;;;;;;3.10;99.90;;;;;;5085269;28;19983;-46
2023/03/01 09:19:48;;;;;;;;;;;3.20;99.90;;;;;;5086671;28;19984;-46
2023/03/01 09:22:16;;;;;;;;;;;3.30;99.90;;;;;;5087910;28;19939;-49
2023/03/01 09:24:42;;;;;;;;;;;3.50;99.90;;;;;;5087907;28;20045;-47
2023/03/01 09:27:09;;;;;;;;;;;3.70;99.90;;;;;;5088488;28;19997;-48
2023/03/01 09:29:36;;;;;;;;;;;3.80;99.90;;;;;;5070886;28;19941;-45
2023/03/01 09:32:02;;;;;;;;;;;3.80;99.90;;;;;;5087719;28;19994;-47
2023/03/01 09:34:29;;;;;;;;;;;3.90;99.90;;;;;;5088867;28;19955;-45
2023/03/01 09:36:58;;;;;;;;;;;4.00;99.90;;;;;;5070913;28;20032;-42
2023/03/01 09:39:26;;;;;;;;;;;4.10;99.90;;;;;;5072419;28;20015;-47
2023/03/01 09:41:55;;;;;;;;;;;4.20;99.90;;;;;;5071516;28;20313;-45
2023/03/01 09:44:25;;;;;;;;;;;4.30;99.90;;;;;;5071636;28;19940;-46
2023/03/01 09:46:51;;;;;;;;;;;4.50;99.90;;;;;;5087119;28;19935;-49
2023/03/01 09:49:18;;;;;;;;;;;4.60;99.90;;;;;;5068955;28;20708;-49
2023/03/01 09:51:55;;;;;;;;;;;4.80;99.90;;;;;;5088501;28;19997;-46
2023/03/01 09:54:21;;;;;;;;;;;4.90;99.90;;;;;;5089102;28;19950;-44
2023/03/01 09:56:52;;;;;;;;;;;5.00;99.90;;;;;;5090769;28;20005;-46
2023/03/01 09:59:20;;;;;;;;;;;5.10;99.90;;;;;;5092047;28;20410;-44
2023/03/01 10:01:47;;;;;;;;;;;5.20;99.90;;;;;;5087828;28;20681;-46
2023/03/01 10:04:23;;;;;;;;;;;5.30;99.90;;;;;;5090694;28;20037;-46
2023/03/01 10:06:51;;;;;;;;;;;5.40;99.90;;;;;;5074159;28;19977;-46
2023/03/01 10:09:18;;;;;;;;;;;5.50;99.90;;;;;;5073568;28;20032;-45
2023/03/01 10:11:46;;;;;;;;;;;5.50;99.90;;;;;;5089715;28;19980;-41
2023/03/01 10:14:16;;;;;;;;;;;5.60;99.90;;;;;;5076087;28;20414;-40
2023/03/01 10:16:44;;;;;;;;;;;5.60;99.90;;;;;;5072042;28;20028;-43
2023/03/01 10:19:12;;;;;;;;;;;5.70;99.90;;;;;;5093059;28;20008;-42
2023/03/01 10:21:40;;;;;;;;;;;5.80;99.90;;;;;;5072517;28;20003;-43
2023/03/01 10:24:10;;;;;;;;;;;5.90;99.90;;;;;;5071365;28;20005;-40
2023/03/01 10:26:40;;;;;;;;;;;5.90;99.90;;;;;;5065637;28;19943;-38
2023/03/01 10:29:07;;;;;;;;;;;6.00;99.90;;;;;;5091532;28;19943;-40
2023/03/01 10:31:39;;;;;;;;;;;6.00;99.90;;;;;;5089297;28;20386;-39
2023/03/01 10:34:08;;;;;;;;;;;6.10;99.90;;;;;;5090877;28;20417;-41
2023/03/01 10:36:35;;;;;;;;;;;6.10;99.90;;;;;;5086244;28;20040;-40
2023/03/01 10:39:03;;;;;;;;;;;6.30;99.90;;;;;;5083154;28;20368;-41
2023/03/01 10:41:29;;;;;;;;;;;6.30;99.90;;;;;;5094429;28;19953;-39
2023/03/01 10:43:56;;;;;;;;;;;6.40;99.90;;;;;;5088306;28;20363;-40
2023/03/01 10:46:24;;;;;;;;;;;6.50;99.90;;;;;;5091186;28;19937;-41
2023/03/01 10:48:58;;;;;;;;;;;6.60;99.90;;;;;;5085504;28;19941;-41
2023/03/01 10:51:24;;;;;;;;;;;6.70;99.90;;;;;;5072051;28;19937;-41
2023/03/01 10:53:51;;;;;;;;;;;6.80;99.90;;;;;;5089782;28;19987;-41
2023/03/01 10:56:18;;;;;;;;;;;6.70;99.90;;;;;;5086203;28;20385;-40
2023/03/01 10:58:57;;;;;;;;;;;6.80;99.90;;;;;;5072458;28;19998;-39
2023/03/01 11:01:27;;;;;;;;;;;6.90;99.90;;;;;;5069367;28;20012;-42
2023/03/01 11:04:12;;;;;;;;;;;6.90;99.90;;;;;;5091236;28;19995;-40
2023/03/01 11:06:39;;;;;;;;;;;7.00;99.90;;;;;;5091619;28;20018;-39
2023/03/01 11:09:13;;;;;;;;;;;7.10;99.90;;;;;;5089558;28;19980;-40
2023/03/01 11:11:40;;;;;;;;;;;7.10;99.70;;;;;;5074437;28;20003;-39
2023/03/01 11:14:07;;;;;;;;;;;7.20;99.90;;;;;;5089061;28;19989;-41
2023/03/01 11:16:35;;;;;;;;;;;7.30;99.90;;;;;;5088910;28;20000;-42
2023/03/01 11:19:04;;;;;;;;;;;7.40;99.90;;;;;;5070927;28;19936;-39
2023/03/01 11:21:33;;;;;;;;;;;7.50;99.80;;;;;;5066913;28;20016;-40
2023/03/01 11:24:00;;;;;;;;;;;7.40;99.10;;;;;;5082716;28;19995;-41
2023/03/01 11:26:27;;;;;;;;;;;7.50;98.40;;;;;;5070225;28;20400;-42
2023/03/01 11:28:55;;;;;;;;;;;7.50;98.90;;;;;;5071878;28;19928;-40
2023/03/01 11:31:21;;;;;;;;;;;7.60;98.20;;;;;;5087828;28;19943;-42
2023/03/01 11:33:49;;;;;;;;;;;7.60;98.40;;;;;;5067248;28;19940;-41
2023/03/01 11:36:17;;;;;;;;;;;7.70;98.90;;;;;;5068868;28;20265;-40
2023/03/01 11:38:45;;;;;;;;;;;7.70;98.30;;;;;;5087762;28;19951;-38
2023/03/01 11:41:14;;;;;;;;;;;7.90;98.60;;;;;;5070062;28;20061;-44
2023/03/01 11:43:43;;;;;;;;;;;7.90;97.70;;;;;;5073875;28;19944;-43
2023/03/01 11:46:24;;;;;;;;;;;8.00;98.10;;;;;;5072459;28;19938;-43
2023/03/01 11:48:54;;;;;;;;;;;8.00;97.40;;;;;;5055975;28;19992;-43
2023/03/01 11:51:22;;;;;;;;;;;8.10;96.90;;;;;;5090063;28;20237;-40
2023/03/01 11:53:54;;;;;;;;;;;8.10;95.60;;;;;;5073784;28;19995;-41
2023/03/01 11:56:23;;;;;;;;;;;8.10;95.90;;;;;;5071452;28;19970;-44
2023/03/01 11:58:54;;;;;;;;;;;8.20;97.00;;;;;;5091923;28;19936;-43
2023/03/01 12:01:31;;;;;;;;;;;8.20;96.40;;;;;;5090145;28;19995;-43
2023/03/01 12:04:06;;;;;;;;;;;8.30;96.20;;;;;;5074144;28;20024;-42
2023/03/01 12:06:47;;;;;;;;;;;8.30;96.60;;;;;;5091549;28;20404;-42
2023/03/01 12:09:19;;;;;;;;;;;8.30;97.30;;;;;;5088214;28;20422;-47
2023/03/01 12:11:50;;;;;;;;;;;8.40;96.90;;;;;;5072862;28;20005;-46
2023/03/01 12:14:32;;;;;;;;;;;8.50;96.60;;;;;;5072689;28;20026;-42
2023/03/01 12:17:02;;;;;;;;;;;8.50;96.40;;;;;;5072694;28;19996;-44
2023/03/01 12:19:35;;;;;;;;;;;8.50;94.90;;;;;;5053876;28;20023;-42
2023/03/01 12:22:11;;;;;;;;;;;8.50;96.20;;;;;;5070256;28;19966;-42
2023/03/01 12:24:52;;;;;;;;;;;8.50;95.80;;;;;;5073824;28;19941;-41
2023/03/01 12:27:27;;;;;;;;;;;8.40;95.90;;;;;;5087169;28;20027;-44
2023/03/01 12:29:55;;;;;;;;;;;8.50;96.80;;;;;;5091627;28;20020;-46
2023/03/01 12:32:27;;;;;;;;;;;8.50;96.30;;;;;;5074774;28;19998;-43
2023/03/01 12:35:06;;;;;;;;;;;8.50;95.90;;;;;;5092549;28;19944;-45
2023/03/01 12:37:43;;;;;;;;;;;8.50;96.90;;;;;;5092287;28;19991;-42
2023/03/01 12:40:25;;;;;;;;;;;8.60;96.30;;;;;;5091644;28;20366;-44
2023/03/01 12:42:57;;;;;;;;;;;8.60;95.80;;;;;;5092367;28;20042;-43
2023/03/01 12:45:31;;;;;;;;;;;8.70;95.60;;;;;;5092434;28;19965;-41
2023/03/01 12:48:09;;;;;;;;;;;8.70;95.90;;;;;;5074410;28;19977;-43
2023/03/01 12:50:38;;;;;;;;;;;8.70;96.30;;;;;;5074459;28;19950;-42
2023/03/01 12:53:05;;;;;;;;;;;8.80;96.60;;;;;;5072678;28;20034;-44
2023/03/01 12:55:32;;;;;;;;;;;8.90;95.60;;;;;;5073767;28;20035;-41
2023/03/01 12:58:04;;;;;;;;;;;9.00;95.90;;;;;;5074544;28;19943;-44
2023/03/01 13:00:32;;;;;;;;;;;9.00;94.70;;;;;;5074379;28;20050;-42
2023/03/01 13:02:59;;;;;;;;;;;9.10;95.60;;;;;;5092034;28;19962;-46
2023/03/01 13:05:30;;;;;;;;;;;9.20;95.60;;;;;;5092288;28;19991;-44
2023/03/01 13:07:59;;;;;;;;;;;9.10;93.80;;;;;;5091537;28;19939;-45
2023/03/01 13:10:27;;;;;;;;;;;9.20;95.80;;;;;;5073981;28;19997;-45
2023/03/01 13:13:03;;;;;;;;;;;9.20;95.30;;;;;;5092048;28;19940;-44
2023/03/01 13:15:30;;;;;;;;;;;9.30;94.80;;;;;;5091985;28;19946;-44
2023/03/01 13:17:57;;;;;;;;;;;9.20;93.20;;;;;;5074490;28;19994;-46
2023/03/01 13:20:25;;;;;;;;;;;9.30;95.10;;;;;;5092027;28;19967;-45
2023/03/01 13:23:00;;;;;;;;;;;9.30;94.70;;;;;;5073158;28;20395;-43
2023/03/01 13:25:27;;;;;;;;;;;9.30;94.20;;;;;;5092254;28;20317;-46
2023/03/01 13:27:53;;;;;;;;;;;9.40;94.80;;;;;;5091970;28;19987;-43
2023/03/01 13:30:41;;;;;;;;;;;9.50;94.90;;;;;;5092297;28;19997;-40
2023/03/01 13:33:27;;;;;;;;;;;9.50;94.90;;;;;;5093847;28;20366;-42
2023/03/01 13:35:54;;;;;;;;;;;9.50;93.30;;;;;;5074714;28;19943;-41
2023/03/01 13:38:40;;;;;;;;;;;9.50;93.50;;;;;;5091408;28;20373;-45
2023/03/01 13:41:07;;;;;;;;;;;9.50;93.90;;;;;;5076560;28;19956;-40
2023/03/01 13:43:35;;;;;;;;;;;9.50;94.10;;;;;;5077968;28;19944;-45
2023/03/01 13:46:08;;;;;;;;;;;9.50;93.90;;;;;;5077263;28;20031;-45
2023/03/01 13:48:34;;;;;;;;;;;9.60;93.90;;;;;;5074798;28;19967;-42
2023/03/01 13:51:01;;;;;;;;;;;9.60;92.10;;;;;;5076469;28;20032;-43
2023/03/01 13:53:30;;;;;;;;;;;9.50;93.00;;;;;;5095275;28;20496;-42
2023/03/01 13:55:57;;;;;;;;;;;9.50;93.60;;;;;;5076826;28;19980;-40
2023/03/01 13:58:24;;;;;;;;;;;9.50;94.00;;;;;;5077483;28;19992;-44
2023/03/01 14:01:01;;;;;;;;;;;9.60;94.50;;;;;;5094872;28;19968;-45
2023/03/01 14:03:29;;;;;;;;;;;9.60;91.90;;;;;;5074758;28;19989;-39
2023/03/01 14:06:00;;;;;;;;;;;9.50;92.30;;;;;;5076918;28;19941;-44
2023/03/01 14:08:27;;;;;;;;;;;9.50;92.10;;;;;;5075707;28;19946;-43
2023/03/01 14:10:55;;;;;;;;;;;9.40;92.30;;;;;;5076281;28;20049;-45
2023/03/01 14:13:26;;;;;;;;;;;9.40;93.00;;;;;;5074143;28;19942;-44
2023/03/01 14:15:57;;;;;;;;;;;9.40;92.90;;;;;;5089834;28;19964;-44
2023/03/01 14:18:24;;;;;;;;;;;9.40;93.20;;;;;;5074791;28;19940;-45
2023/03/01 14:20:52;;;;;;;;;;;9.50;94.50;;;;;;5053207;28;20020;-43
2023/03/01 14:23:19;;;;;;;;;;;9.50;94.00;;;;;;5070720;28;19994;-41
2023/03/01 14:25:49;;;;;;;;;;;9.50;92.50;;;;;;5072952;28;20412;-46
2023/03/01 14:28:17;;;;;;;;;;;9.50;93.00;;;;;;5072117;28;20436;-42
2023/03/01 14:30:44;;;;;;;;;;;9.50;93.90;;;;;;5074280;28;19943;-47
2023/03/01 14:33:19;;;;;;;;;;;9.50;94.90;;;;;;5074360;28;20036;-45